Map

Track Data

SID SEASON NUMBER BASIN SUBBASIN NAME ISO_TIME NATURE LAT LON WMO_WIND WMO_PRES WMO_AGENCY TRACK_TYPE DIST2LAND LANDFALL IFLAG USA_AGENCY USA_ATCF_ID USA_LAT USA_LON USA_RECORD USA_STATUS USA_WIND USA_PRES USA_SSHS USA_R34_NE USA_R34_SE USA_R34_SW USA_R34_NW USA_R50_NE USA_R50_SE USA_R50_SW USA_R50_NW USA_R64_NE USA_R64_SE USA_R64_SW USA_R64_NW USA_POCI USA_ROCI USA_RMW USA_EYE TOKYO_LAT TOKYO_LON TOKYO_GRADE TOKYO_WIND TOKYO_PRES TOKYO_R50_DIR TOKYO_R50_LONG TOKYO_R50_SHORT TOKYO_R30_DIR TOKYO_R30_LONG TOKYO_R30_SHORT TOKYO_LAND CMA_LAT CMA_LON CMA_CAT CMA_WIND CMA_PRES HKO_LAT HKO_LON HKO_CAT HKO_WIND HKO_PRES NEWDELHI_LAT NEWDELHI_LON NEWDELHI_GRADE NEWDELHI_WIND NEWDELHI_PRES NEWDELHI_CI NEWDELHI_DP NEWDELHI_POCI REUNION_LAT REUNION_LON REUNION_TYPE REUNION_WIND REUNION_PRES REUNION_TNUM REUNION_CI REUNION_RMW REUNION_R34_NE REUNION_R34_SE REUNION_R34_SW REUNION_R34_NW REUNION_R50_NE REUNION_R50_SE REUNION_R50_SW REUNION_R50_NW REUNION_R64_NE REUNION_R64_SE REUNION_R64_SW REUNION_R64_NW BOM_LAT BOM_LON BOM_TYPE BOM_WIND BOM_PRES BOM_TNUM BOM_CI BOM_RMW BOM_R34_NE BOM_R34_SE BOM_R34_SW BOM_R34_NW BOM_R50_NE BOM_R50_SE BOM_R50_SW BOM_R50_NW BOM_R64_NE BOM_R64_SE BOM_R64_SW BOM_R64_NW BOM_ROCI BOM_POCI BOM_EYE BOM_POS_METHOD BOM_PRES_METHOD NADI_LAT NADI_LON NADI_CAT NADI_WIND NADI_PRES WELLINGTON_LAT WELLINGTON_LON WELLINGTON_WIND WELLINGTON_PRES DS824_LAT DS824_LON DS824_STAGE DS824_WIND DS824_PRES TD9636_LAT TD9636_LON TD9636_STAGE TD9636_WIND TD9636_PRES TD9635_LAT TD9635_LON TD9635_WIND TD9635_PRES TD9635_ROCI NEUMANN_LAT NEUMANN_LON NEUMANN_CLASS NEUMANN_WIND NEUMANN_PRES MLC_LAT MLC_LON MLC_CLASS MLC_WIND MLC_PRES USA_GUST BOM_GUST BOM_GUST_PER REUNION_GUST REUNION_GUST_PER USA_SEAHGT USA_SEARAD_NE USA_SEARAD_SE USA_SEARAD_SW USA_SEARAD_NW STORM_SPEED STORM_DIR
1918099S08130 1918 30 SI WA NOT_NAMED 1918-04-08 12:00:00 NR -8.00000 129.800 main 143 143 __________O___ -1 -8.00000 129.800 7 2 256
1918099S08130 1918 30 SI WA NOT_NAMED 1918-04-08 15:00:00 NR -8.02497 129.691 main 154 154 __________P___ -1 -8.02497 129.691 7 2 256
1918099S08130 1918 30 SI WA NOT_NAMED 1918-04-08 18:00:00 NR -8.05994 129.565 main 165 165 __________P___ -1 -8.05994 129.565 7 3 252
1918099S08130 1918 30 SI WA NOT_NAMED 1918-04-08 21:00:00 NR -8.11496 129.407 main 187 187 __________P___ -1 -8.11496 129.407 7 4 249
1918099S08130 1918 30 SI WA NOT_NAMED 1918-04-09 00:00:00 NR -8.20000 129.200 main 210 176 __________O___ -1 -8.20000 129.200 7 5 246
1918099S08130 1918 30 SI WA NOT_NAMED 1918-04-09 03:00:00 NR -8.32128 128.933 main 176 143 __________P___ -1 -8.32128 128.933 7 6 245
1918099S08130 1918 30 SI WA NOT_NAMED 1918-04-09 06:00:00 NR -8.47003 128.618 main 143 112 __________P___ -1 -8.47003 128.618 7 7 245
1918099S08130 1918 30 SI WA NOT_NAMED 1918-04-09 09:00:00 NR -8.63375 128.268 main 112 79 __________P___ -1 -8.63375 128.268 7 8 245
1918099S08130 1918 30 SI WA NOT_NAMED 1918-04-09 12:00:00 NR -8.80000 127.900 main 79 62 __________O___ -1 -8.80000 127.900 7 8 247
1918099S08130 1918 30 SI WA NOT_NAMED 1918-04-09 15:00:00 NR -8.94183 127.539 main 55 47 __________P___ -1 -8.94183 127.539 7 8 249
1918099S08130 1918 30 SI WA NOT_NAMED 1918-04-09 18:00:00 NR -9.08494 127.165 main 49 39 __________P___ -1 -9.08494 127.165 7 8 249
1918099S08130 1918 30 SI WA NOT_NAMED 1918-04-09 21:00:00 NR -9.23557 126.783 main 39 33 __________P___ -1 -9.23557 126.783 7 8 247
1918099S08130 1918 30 SI WA NOT_NAMED 1918-04-10 00:00:00 NR -9.40000 126.400 main 44 44 __________O___ -1 -9.40000 126.400 7 8 245
1918099S08130 1918 30 SI WA NOT_NAMED 1918-04-10 03:00:00 NR -9.58138 126.033 main 57 55 __________P___ -1 -9.58138 126.033 7 8 243
1918099S08130 1918 30 SI WA NOT_NAMED 1918-04-10 06:00:00 NR -9.77724 125.665 main 64 55 __________P___ -1 -9.77724 125.665 7 8 241
1918099S08130 1918 30 SI WA NOT_NAMED 1918-04-10 09:00:00 NR -9.98448 125.289 main 55 39 __________P___ -1 -9.98448 125.289 7 9 241
1918099S08130 1918 30 SI WA NOT_NAMED 1918-04-10 12:00:00 NR -10.2000 124.900 main 39 24 __________O___ -1 -10.2000 124.900 7 9 241
1918099S08130 1918 30 SI WA NOT_NAMED 1918-04-10 15:00:00 NR -10.4260 124.477 main 33 33 __________P___ -1 -10.4260 124.477 7 10 242
1918099S08130 1918 30 SI WA NOT_NAMED 1918-04-10 18:00:00 NR -10.6576 124.043 main 40 35 __________P___ -1 -10.6576 124.043 7 10 242
1918099S08130 1918 30 SI WA NOT_NAMED 1918-04-10 21:00:00 NR -10.8854 123.612 main 56 56 __________P___ -1 -10.8854 123.612 7 9 242
1918099S08130 1918 30 SI WA NOT_NAMED 1918-04-11 00:00:00 NR -11.1000 123.200 main 84 84 __________O___ -1 -11.1000 123.200 7 9 242
1918099S08130 1918 30 SI WA NOT_NAMED 1918-04-11 03:00:00 NR -11.2849 122.840 main 126 126 __________P___ -1 -11.2849 122.840 7 8 243
1918099S08130 1918 30 SI WA NOT_NAMED 1918-04-11 06:00:00 NR -11.4570 122.499 main 164 164 __________P___ -1 -11.4570 122.499 7 8 243
1918099S08130 1918 30 SI WA NOT_NAMED 1918-04-11 09:00:00 NR -11.6256 122.159 main 195 195 __________P___ -1 -11.6256 122.159 7 8 243
1918099S08130 1918 30 SI WA NOT_NAMED 1918-04-11 12:00:00 NR -11.8000 121.800 main 215 209 __________O___ -1 -11.8000 121.800 7 8 244
1918099S08130 1918 30 SI WA NOT_NAMED 1918-04-11 15:00:00 NR -11.9874 121.408 main 214 209 __________P___ -1 -11.9874 121.408 7 9 244
1918099S08130 1918 30 SI WA NOT_NAMED 1918-04-11 18:00:00 NR -12.1858 120.988 main 219 217 __________P___ -1 -12.1858 120.988 7 9 244
1918099S08130 1918 30 SI WA NOT_NAMED 1918-04-11 21:00:00 NR -12.3913 120.549 main 235 235 __________P___ -1 -12.3913 120.549 7 10 244
1918099S08130 1918 30 SI WA NOT_NAMED 1918-04-12 00:00:00 NR -12.6000 120.100 main 261 __________O___ -1 -12.6000 120.100 7 10 245

About IBTrACS Database

This database is a web-friendly format of International Best Track Archive for Climate Stewardship (IBTrACS), a global best track data archive curated by NOAA dating back to 1842.

Updated: 2021-12-06